Time;durP1;ratioP1;P1;durP2;ratioP2;P2;SDS_P1;SDS_P2;PMS_P1;PMS_P2;Temp;Humidity;BMP_temperature;BMP_pressure;BME280_temperature;BME280_humidity;BME280_pressure;Samples;Min_cycle;Max_cycle;Signal;HPM_P1;HPM_P2
2023/01/04 00:04:35;;;;;;;3.60;2.30;;;7.20;99.90;;;;;;5114208;28;20035;-73
2023/01/04 00:07:01;;;;;;;7.35;3.25;;;7.10;99.90;;;;;;5095620;28;20028;-74
2023/01/04 00:09:26;;;;;;;5.18;3.75;;;7.10;99.90;;;;;;5096299;28;20067;-73
2023/01/04 00:11:52;;;;;;;5.97;3.22;;;7.00;99.90;;;;;;5113944;28;20034;-73
2023/01/04 00:14:18;;;;;;;7.28;3.45;;;7.00;99.90;;;;;;5095318;28;20115;-73
2023/01/04 00:16:44;;;;;;;5.53;3.77;;;7.10;99.90;;;;;;5095742;28;20043;-73
2023/01/04 00:19:11;;;;;;;6.40;3.53;;;7.00;99.90;;;;;;5095416;28;20419;-73
2023/01/04 00:21:36;;;;;;;5.13;3.35;;;7.00;99.90;;;;;;5095821;28;20476;-73
2023/01/04 00:24:02;;;;;;;6.03;3.90;;;7.10;99.90;;;;;;5095265;28;20031;-73
2023/01/04 00:26:30;;;;;;;6.70;3.30;;;7.00;99.90;;;;;;5095622;28;20035;-73
2023/01/04 00:29:06;;;;;;;5.03;3.30;;;7.00;99.90;;;;;;5094903;28;20036;-74
2023/01/04 00:31:33;;;;;;;6.40;3.80;;;7.00;99.90;;;;;;5095750;28;20126;-73
2023/01/04 00:34:01;;;;;;;10.93;3.58;;;7.00;99.90;;;;;;5095045;28;20050;-73
2023/01/04 00:36:27;;;;;;;5.77;3.80;;;6.90;99.90;;;;;;5095631;28;20092;-73
2023/01/04 00:39:06;;;;;;;5.22;3.67;;;6.90;99.90;;;;;;5113680;28;20028;-73
2023/01/04 00:41:44;;;;;;;7.07;3.50;;;6.90;99.90;;;;;;5095501;28;20131;-73
2023/01/04 00:44:11;;;;;;;5.07;3.33;;;6.80;99.90;;;;;;5095072;28;20076;-73
2023/01/04 00:46:38;;;;;;;5.88;3.75;;;6.80;99.90;;;;;;5095074;28;20118;-73
2023/01/04 00:49:05;;;;;;;7.40;3.90;;;6.80;99.90;;;;;;5094875;28;20016;-73
2023/01/04 00:51:32;;;;;;;7.78;3.75;;;6.80;99.90;;;;;;5095201;28;20035;-73
2023/01/04 00:54:00;;;;;;;6.63;3.47;;;6.70;99.90;;;;;;5094683;28;20353;-74
2023/01/04 00:56:27;;;;;;;6.60;3.92;;;6.70;99.90;;;;;;5095147;28;20019;-73
2023/01/04 00:58:57;;;;;;;5.07;3.47;;;6.70;99.90;;;;;;5113468;28;20107;-73
2023/01/04 01:01:23;;;;;;;5.65;3.38;;;6.70;99.90;;;;;;5095312;28;20046;-73
2023/01/04 01:03:54;;;;;;;6.30;3.57;;;6.70;99.90;;;;;;5095094;28;20023;-73
2023/01/04 01:06:20;;;;;;;6.80;3.63;;;6.70;99.90;;;;;;5094685;28;20030;-73
2023/01/04 01:08:46;;;;;;;8.68;4.25;;;6.60;99.90;;;;;;5113360;28;20079;-73
2023/01/04 01:11:11;;;;;;;6.87;3.60;;;6.60;99.90;;;;;;5094396;28;20111;-73
2023/01/04 01:13:38;;;;;;;7.23;3.63;;;6.50;99.90;;;;;;5095051;28;20384;-73
2023/01/04 01:16:06;;;;;;;6.93;3.87;;;6.50;99.90;;;;;;5094425;28;20028;-73
2023/01/04 01:18:36;;;;;;;8.07;4.37;;;6.40;99.90;;;;;;5094765;28;20504;-73
2023/01/04 01:21:14;;;;;;;6.17;3.47;;;6.40;99.90;;;;;;5094575;28;20031;-73
2023/01/04 01:23:40;;;;;;;7.90;4.20;;;6.40;99.90;;;;;;5096374;28;20028;-73
2023/01/04 01:26:09;;;;;;;6.03;3.70;;;6.40;99.90;;;;;;5101176;28;20062;-73
2023/01/04 01:28:35;;;;;;;8.03;4.07;;;6.40;99.90;;;;;;5119393;28;20052;-73
2023/01/04 01:31:12;;;;;;;7.40;4.13;;;6.40;99.90;;;;;;5101090;28;20601;-73
2023/01/04 01:33:39;;;;;;;5.57;3.63;;;6.40;99.90;;;;;;5101570;28;20477;-73
2023/01/04 01:36:07;;;;;;;6.87;4.13;;;6.40;99.90;;;;;;5101124;28;20111;-73
2023/01/04 01:38:33;;;;;;;6.00;3.97;;;6.30;99.90;;;;;;5120041;28;20024;-73
2023/01/04 01:40:58;;;;;;;6.90;4.10;;;6.30;99.90;;;;;;5119097;28;20103;-78
2023/01/04 01:43:46;;;;;;;7.43;4.50;;;6.30;99.90;;;;;;5119799;28;20110;-73
2023/01/04 01:46:13;;;;;;;7.67;4.20;;;6.20;99.90;;;;;;5051054;28;20031;-72
2023/01/04 01:48:39;;;;;;;8.60;4.60;;;6.30;99.90;;;;;;5101391;28;20024;-73
2023/01/04 01:51:05;;;;;;;8.33;4.00;;;6.20;99.90;;;;;;5119209;28;20023;-74
2023/01/04 01:53:36;;;;;;;6.87;4.40;;;6.30;99.90;;;;;;5101444;28;20048;-73
2023/01/04 01:56:04;;;;;;;7.40;4.83;;;6.20;99.90;;;;;;5119013;28;20491;-74
2023/01/04 01:58:37;;;;;;;7.83;4.50;;;6.20;99.90;;;;;;5119903;28;20039;-73
2023/01/04 02:01:03;;;;;;;7.50;5.17;;;6.10;99.90;;;;;;5100953;28;20086;-73
2023/01/04 02:03:34;;;;;;;7.67;5.20;;;6.10;99.90;;;;;;5101452;28;20464;-73
2023/01/04 02:06:01;;;;;;;8.27;4.73;;;6.10;99.90;;;;;;5119423;28;20059;-78
2023/01/04 02:08:28;;;;;;;9.13;5.13;;;6.10;99.90;;;;;;5101367;28;20027;-73
2023/01/04 02:10:54;;;;;;;9.07;5.33;;;6.10;99.90;;;;;;5101418;28;20035;-73
2023/01/04 02:13:24;;;;;;;8.70;5.50;;;6.10;99.90;;;;;;5100645;28;20369;-73
2023/01/04 02:16:11;;;;;;;8.90;5.30;;;6.10;99.90;;;;;;5101360;28;20110;-73
2023/01/04 02:18:52;;;;;;;9.90;5.20;;;6.10;99.90;;;;;;5097250;28;20056;-73
2023/01/04 02:21:45;;;;;;;9.13;5.30;;;6.10;99.90;;;;;;5097283;28;20032;-73
2023/01/04 02:24:32;;;;;;;8.57;5.50;;;6.00;99.90;;;;;;5097363;28;20031;-73
2023/01/04 02:27:28;;;;;;;10.27;5.67;;;6.00;99.90;;;;;;5097774;28;20123;-73
2023/01/04 02:30:19;;;;;;;7.97;5.20;;;5.90;99.90;;;;;;5097937;28;20419;-73
2023/01/04 02:33:03;;;;;;;9.83;6.03;;;6.00;99.90;;;;;;5099281;28;20097;-73
2023/01/04 02:35:50;;;;;;;9.80;6.10;;;6.00;99.90;;;;;;5095855;28;20119;-72
2023/01/04 02:38:27;;;;;;;13.23;6.53;;;6.00;99.90;;;;;;5095064;28;20027;-73
2023/01/04 02:41:29;;;;;;;11.70;6.50;;;6.00;99.90;;;;;;5094636;28;20042;-73
2023/01/04 02:47:07;;;;;;;13.63;6.30;;;6.10;99.90;;;;;;5095546;28;20089;-78
2023/01/04 02:52:18;;;;;;;12.40;7.27;;;6.10;99.90;;;;;;5094977;28;20267;-73
2023/01/04 02:54:44;;;;;;;14.70;7.87;;;6.10;99.90;;;;;;5094182;28;20028;-74
2023/01/04 02:57:43;;;;;;;13.70;7.90;;;6.00;99.90;;;;;;5095178;28;20032;-73
2023/01/04 03:06:13;;;;;;;15.23;8.10;;;6.00;99.90;;;;;;5093654;28;20027;-73
2023/01/04 03:06:43;;;;;;;19.03;8.70;;;6.00;99.90;;;;;;5094494;28;20085;-73
2023/01/04 03:09:17;;;;;;;16.93;8.30;;;6.00;99.90;;;;;;5084480;28;20480;-74
2023/01/04 03:14:59;;;;;;;18.03;8.73;;;6.00;99.90;;;;;;5095104;28;20084;-73
2023/01/04 03:17:26;;;;;;;15.43;7.50;;;6.00;99.90;;;;;;5103618;28;20059;-73
2023/01/04 03:19:55;;;;;;;18.17;8.53;;;6.00;99.90;;;;;;5097035;28;20019;-73
2023/01/04 03:36:53;;;;;;;17.97;8.13;;;6.20;99.90;;;;;;5114936;28;20069;-73
2023/01/04 03:48:52;;;;;;;17.50;8.53;;;6.30;99.90;;;;;;5113340;28;20476;-73
2023/01/04 03:51:25;;;;;;;14.57;7.60;;;6.30;99.90;;;;;;4994977;28;20100;-73
2023/01/04 03:54:10;;;;;;;17.40;7.77;;;6.30;99.90;;;;;;5012050;28;20057;-72
2023/01/04 03:56:40;;;;;;;15.67;7.47;;;6.30;99.90;;;;;;5012002;28;20034;-73
2023/01/04 03:59:08;;;;;;;15.47;6.97;;;6.40;99.90;;;;;;5011901;28;20026;-75
2023/01/04 04:01:35;;;;;;;13.57;7.20;;;6.30;99.90;;;;;;5011819;28;20034;-73
2023/01/04 04:09:29;;;;;;;13.00;6.60;;;6.30;99.90;;;;;;5011493;28;20037;-73
2023/01/04 04:11:55;;;;;;;13.77;6.93;;;6.40;99.90;;;;;;5011697;28;20033;-73
2023/01/04 04:14:21;;;;;;;15.63;7.30;;;6.30;99.90;;;;;;5011039;28;20033;-73
2023/01/04 04:16:46;;;;;;;14.40;6.67;;;6.30;99.90;;;;;;5011419;28;20085;-72
2023/01/04 04:19:12;;;;;;;13.00;6.20;;;6.40;99.90;;;;;;5011121;28;20041;-73
2023/01/04 04:21:37;;;;;;;16.47;6.93;;;6.40;99.90;;;;;;5058267;28;20112;-73
2023/01/04 04:24:04;;;;;;;11.80;5.83;;;6.40;99.90;;;;;;5113985;28;20035;-73
2023/01/04 04:26:30;;;;;;;13.53;6.70;;;6.40;99.90;;;;;;5113341;28;20025;-73
2023/01/04 04:28:55;;;;;;;12.07;6.27;;;6.40;99.90;;;;;;5095702;28;20023;-73
2023/01/04 04:31:21;;;;;;;13.13;6.27;;;6.40;99.90;;;;;;5095172;28;20084;-73
2023/01/04 04:33:47;;;;;;;13.37;5.37;;;6.40;99.90;;;;;;5095710;28;20217;-73
2023/01/04 04:36:12;;;;;;;11.77;6.03;;;6.40;99.90;;;;;;5095178;28;20456;-73
2023/01/04 04:38:38;;;;;;;11.00;5.57;;;6.40;99.90;;;;;;5095853;28;20119;-73
2023/01/04 04:43:57;;;;;;;10.00;5.10;;;6.50;99.90;;;;;;5113804;28;20494;-73
2023/01/04 04:46:23;;;;;;;10.60;5.13;;;6.50;99.90;;;;;;5094984;28;20028;-73
2023/01/04 04:48:49;;;;;;;11.30;4.87;;;6.50;99.90;;;;;;5095378;28;20023;-73
2023/01/04 04:51:14;;;;;;;7.47;4.33;;;6.50;99.90;;;;;;5094919;28;20024;-73
2023/01/04 04:53:40;;;;;;;10.40;4.50;;;6.60;99.90;;;;;;5095404;28;20023;-73
2023/01/04 04:56:06;;;;;;;8.20;4.37;;;6.60;99.90;;;;;;5113465;28;20032;-73
2023/01/04 04:58:32;;;;;;;7.10;4.20;;;6.60;99.90;;;;;;5112855;28;20028;-73
2023/01/04 05:00:58;;;;;;;9.13;4.50;;;6.70;99.90;;;;;;5095433;28;20035;-73
2023/01/04 05:03:23;;;;;;;9.90;3.93;;;6.70;99.90;;;;;;5094670;28;20028;-73
2023/01/04 05:05:49;;;;;;;5.67;3.73;;;6.80;99.90;;;;;;5113241;28;20573;-73
2023/01/04 05:08:14;;;;;;;6.33;3.37;;;6.80;99.90;;;;;;5094631;28;20522;-73
2023/01/04 05:10:40;;;;;;;6.57;3.40;;;6.80;99.90;;;;;;5113065;28;20028;-73
2023/01/04 05:13:09;;;;;;;5.50;3.37;;;6.80;99.90;;;;;;5113681;28;20084;-73
2023/01/04 05:15:43;;;;;;;6.23;3.17;;;6.90;99.90;;;;;;5094502;28;20373;-73
2023/01/04 05:18:11;;;;;;;3.67;2.13;;;6.90;99.90;;;;;;5113316;28;20051;-73
2023/01/04 05:20:37;;;;;;;5.47;2.47;;;6.90;99.90;;;;;;5094933;28;20032;-73
2023/01/04 05:23:03;;;;;;;3.83;1.83;;;7.00;99.90;;;;;;5112882;28;20023;-73
2023/01/04 05:25:29;;;;;;;2.20;1.63;;;7.00;99.90;;;;;;5094406;28;20027;-73
2023/01/04 05:27:55;;;;;;;3.30;1.47;;;7.10;99.90;;;;;;5112710;28;20043;-73
2023/01/04 05:33:05;;;;;;;2.20;1.57;;;7.20;99.90;;;;;;5113209;28;20438;-73
2023/01/04 05:35:31;;;;;;;2.53;1.50;;;7.30;99.90;;;;;;5094212;28;20073;-73
2023/01/04 05:37:57;;;;;;;2.77;1.60;;;7.30;99.90;;;;;;5094765;28;20032;-73
2023/01/04 05:40:23;;;;;;;4.07;1.63;;;7.30;99.90;;;;;;5094188;28;20026;-73
2023/01/04 05:42:49;;;;;;;2.97;1.40;;;7.40;99.90;;;;;;5094777;28;20028;-73
2023/01/04 05:45:16;;;;;;;2.63;1.13;;;7.40;99.90;;;;;;5094205;28;20540;-74
2023/01/04 05:47:41;;;;;;;3.08;1.48;;;7.40;99.90;;;;;;5094749;28;20031;-73
2023/01/04 05:50:08;;;;;;;2.37;1.37;;;7.40;99.90;;;;;;5094730;28;20039;-73
2023/01/04 05:52:34;;;;;;;4.03;1.43;;;7.50;99.90;;;;;;5112096;28;20023;-73
2023/01/04 05:55:00;;;;;;;3.70;1.13;;;7.50;99.90;;;;;;5112618;28;20052;-73
2023/01/04 05:57:26;;;;;;;3.50;1.33;;;7.50;99.90;;;;;;5093837;28;20120;-73
2023/01/04 05:59:51;;;;;;;2.67;1.43;;;7.50;99.90;;;;;;5094666;28;20111;-73
2023/01/04 06:02:23;;;;;;;1.97;1.30;;;7.60;99.90;;;;;;5094111;28;20060;-74
2023/01/04 06:04:48;;;;;;;1.83;0.90;;;7.60;99.90;;;;;;5113059;28;20032;-73
2023/01/04 06:07:14;;;;;;;4.20;1.00;;;7.60;99.90;;;;;;5112359;28;20491;-79
2023/01/04 06:09:40;;;;;;;3.07;1.13;;;7.60;99.90;;;;;;5094643;28;20024;-73
2023/01/04 06:12:06;;;;;;;2.23;1.00;;;7.70;99.90;;;;;;5097429;28;20024;-73
2023/01/04 06:14:32;;;;;;;1.43;0.90;;;7.70;99.90;;;;;;5116098;28;20030;-73
2023/01/04 06:16:58;;;;;;;4.77;0.90;;;7.70;99.90;;;;;;5097904;28;20047;-73
2023/01/04 06:19:24;;;;;;;1.43;1.00;;;7.70;99.90;;;;;;5097748;28;20028;-73
2023/01/04 06:21:50;;;;;;;2.00;0.90;;;7.80;99.90;;;;;;5098161;28;20031;-73
2023/01/04 06:24:15;;;;;;;1.13;0.70;;;7.80;99.90;;;;;;5097624;28;20068;-75
2023/01/04 06:26:41;;;;;;;1.27;0.90;;;7.90;99.90;;;;;;5098210;28;20028;-74
2023/01/04 06:29:07;;;;;;;0.75;0.75;;;7.90;99.90;;;;;;5116387;28;20031;-73
2023/01/04 06:31:33;;;;;;;1.83;0.90;;;7.90;99.90;;;;;;5097456;28;20019;-73
2023/01/04 06:33:59;;;;;;;1.42;0.80;;;7.90;99.90;;;;;;5098006;28;20453;-73
2023/01/04 06:36:25;;;;;;;1.30;0.70;;;7.90;99.90;;;;;;5115704;28;20034;-73
2023/01/04 06:38:51;;;;;;;1.30;0.70;;;8.00;99.90;;;;;;5097997;28;20027;-73
2023/01/04 06:41:17;;;;;;;2.92;0.80;;;8.00;99.90;;;;;;5115543;28;20027;-73
2023/01/04 06:43:43;;;;;;;2.93;0.77;;;8.10;99.90;;;;;;5115921;28;20042;-72
2023/01/04 06:46:08;;;;;;;1.17;0.82;;;8.10;99.90;;;;;;5097695;28;20027;-73
2023/01/04 06:48:34;;;;;;;1.52;0.60;;;8.10;99.90;;;;;;5097145;28;20027;-73
2023/01/04 06:50:59;;;;;;;1.50;0.50;;;8.10;99.90;;;;;;5097590;28;20055;-73
2023/01/04 06:53:25;;;;;;;0.95;0.70;;;8.10;99.90;;;;;;5097023;28;20027;-73
2023/01/04 06:55:51;;;;;;;0.70;0.60;;;8.10;99.90;;;;;;5115828;28;20034;-73
2023/01/04 06:58:17;;;;;;;2.85;0.70;;;8.10;99.90;;;;;;5114955;28;20107;-78
2023/01/04 07:00:43;;;;;;;1.83;0.73;;;8.20;99.90;;;;;;5097318;28;20112;-73
2023/01/04 07:03:08;;;;;;;3.35;0.80;;;8.20;99.90;;;;;;5115546;28;20073;-73
2023/01/04 07:05:34;;;;;;;1.45;0.60;;;8.20;99.90;;;;;;5096794;28;20027;-73
2023/01/04 07:08:03;;;;;;;1.55;0.65;;;8.20;99.90;;;;;;5115490;28;20495;-73
2023/01/04 07:10:29;;;;;;;1.25;0.60;;;8.20;99.90;;;;;;5096762;28;20385;-73
2023/01/04 07:12:55;;;;;;;1.85;0.70;;;8.30;99.90;;;;;;5097203;28;20476;-73
2023/01/04 07:15:21;;;;;;;0.80;0.50;;;8.30;99.90;;;;;;5096774;28;20035;-74
2023/01/04 07:17:48;;;;;;;0.90;0.50;;;8.30;99.90;;;;;;5115159;28;20453;-73
2023/01/04 07:20:13;;;;;;;2.05;0.70;;;8.30;99.90;;;;;;5097103;28;20484;-73
2023/01/04 07:22:39;;;;;;;1.17;0.73;;;8.30;99.90;;;;;;5096073;28;20046;-73
2023/01/04 07:25:05;;;;;;;1.00;0.45;;;8.30;99.90;;;;;;5096974;28;20024;-73
2023/01/04 07:27:31;;;;;;;4.50;0.60;;;8.30;99.90;;;;;;5096187;28;20046;-73
2023/01/04 07:29:56;;;;;;;0.90;0.57;;;8.30;99.90;;;;;;5115125;28;20024;-72
2023/01/04 07:32:22;;;;;;;2.55;0.60;;;8.30;99.90;;;;;;5096280;28;20457;-73
2023/01/04 07:34:48;;;;;;;0.70;0.60;;;8.40;99.90;;;;;;5114728;28;20117;-72
2023/01/04 07:37:14;;;;;;;0.63;0.45;;;8.40;99.90;;;;;;5096904;28;20073;-73
2023/01/04 07:39:40;;;;;;;2.05;0.60;;;8.40;99.90;;;;;;5114482;28;20065;-73
2023/01/04 07:42:06;;;;;;;0.93;0.68;;;8.40;99.90;;;;;;5096469;28;20032;-72
2023/01/04 07:44:31;;;;;;;2.58;0.73;;;8.40;99.90;;;;;;5096200;28;20032;-73
2023/01/04 07:46:57;;;;;;;1.98;0.70;;;8.40;99.90;;;;;;5096543;28;20252;-72
2023/01/04 07:49:23;;;;;;;2.28;0.60;;;8.40;99.90;;;;;;5096038;28;20020;-73
2023/01/04 07:51:48;;;;;;;1.42;0.70;;;8.40;99.90;;;;;;5096202;28;20126;-73
2023/01/04 07:54:17;;;;;;;1.23;0.57;;;8.40;99.90;;;;;;5114668;28;20021;-73
2023/01/04 07:56:44;;;;;;;0.80;0.40;;;8.50;99.90;;;;;;5095778;28;20036;-73
2023/01/04 07:59:12;;;;;;;0.90;0.60;;;8.50;99.90;;;;;;5096390;28;20058;-73
2023/01/04 08:01:38;;;;;;;1.75;0.50;;;8.50;99.90;;;;;;5095391;28;20116;-73
2023/01/04 08:04:08;;;;;;;0.40;0.38;;;8.50;99.90;;;;;;5096228;28;20024;-73
2023/01/04 08:06:34;;;;;;;1.50;0.45;;;8.50;99.90;;;;;;5095726;28;20050;-73
2023/01/04 08:09:01;;;;;;;1.90;0.50;;;8.50;99.90;;;;;;5096121;28;20048;-72
2023/01/04 08:11:26;;;;;;;0.75;0.40;;;8.50;99.90;;;;;;5113566;28;20376;-73
2023/01/04 08:13:52;;;;;;;1.38;0.77;;;8.50;99.90;;;;;;5114243;28;20035;-73
2023/01/04 08:16:24;;;;;;;0.88;0.57;;;8.50;99.90;;;;;;5095852;28;20035;-73
2023/01/04 08:19:06;;;;;;;2.88;0.52;;;8.50;99.90;;;;;;5114319;28;20023;-73
2023/01/04 08:21:34;;;;;;;0.50;0.40;;;8.50;99.90;;;;;;5113301;28;20476;-73
2023/01/04 08:24:01;;;;;;;0.80;0.45;;;8.50;99.90;;;;;;5095805;28;20419;-73
2023/01/04 08:26:28;;;;;;;1.17;0.55;;;8.60;99.90;;;;;;5095198;28;20031;-73
2023/01/04 08:28:55;;;;;;;0.60;0.40;;;8.60;99.90;;;;;;5095848;28;20047;-73
2023/01/04 08:31:23;;;;;;;2.78;1.70;;;8.70;99.90;;;;;;5095843;28;20115;-73
2023/01/04 08:33:50;;;;;;;0.98;0.57;;;8.70;99.90;;;;;;5112950;28;20028;-72
2023/01/04 08:36:26;;;;;;;1.67;0.60;;;8.70;99.90;;;;;;5095499;28;20089;-72
2023/01/04 08:38:58;;;;;;;1.33;0.60;;;8.70;99.90;;;;;;5095732;28;20115;-73
2023/01/04 08:41:23;;;;;;;3.10;0.80;;;8.80;99.90;;;;;;5095186;28;20069;-78
2023/01/04 08:43:49;;;;;;;0.90;0.40;;;8.80;99.90;;;;;;5095394;28;20039;-72
2023/01/04 08:46:15;;;;;;;1.85;0.63;;;8.80;99.90;;;;;;5095502;28;20039;-72
2023/01/04 08:48:41;;;;;;;1.10;0.55;;;8.80;99.90;;;;;;5094888;28;20027;-73
2023/01/04 08:51:10;;;;;;;0.77;0.43;;;8.90;99.90;;;;;;5113569;28;20372;-73
2023/01/04 08:53:36;;;;;;;2.10;0.50;;;8.90;99.90;;;;;;5094830;28;20050;-73
2023/01/04 08:56:02;;;;;;;0.40;0.40;;;8.90;99.90;;;;;;5095235;28;20028;-73
2023/01/04 08:58:30;;;;;;;1.30;0.57;;;8.90;99.90;;;;;;5094699;28;20036;-73
2023/01/04 09:01:14;;;;;;;3.25;0.68;;;8.90;99.90;;;;;;5095178;28;20039;-73
2023/01/04 09:03:40;;;;;;;1.05;0.40;;;9.00;99.90;;;;;;5094641;28;20165;-72
2023/01/04 09:06:09;;;;;;;2.35;0.60;;;9.00;99.90;;;;;;5095015;28;20472;-72
2023/01/04 09:08:36;;;;;;;2.05;0.50;;;9.00;99.90;;;;;;5112839;28;20465;-73
2023/01/04 09:11:06;;;;;;;1.15;0.50;;;9.00;99.90;;;;;;5113273;28;20024;-72
2023/01/04 09:13:36;;;;;;;1.52;0.40;;;9.10;99.90;;;;;;5094613;28;20112;-73
2023/01/04 09:16:04;;;;;;;1.42;0.40;;;9.10;99.90;;;;;;5095019;28;20084;-73
2023/01/04 09:18:30;;;;;;;1.88;0.50;;;9.10;99.90;;;;;;5094225;28;20054;-73
2023/01/04 09:20:56;;;;;;;0.45;0.40;;;9.10;99.90;;;;;;5094872;28;20073;-73
2023/01/04 09:23:22;;;;;;;0.80;0.40;;;9.20;99.90;;;;;;5094768;28;20027;-72
2023/01/04 09:25:48;;;;;;;0.50;0.40;;;9.20;99.90;;;;;;5094384;28;20046;-72
2023/01/04 09:28:13;;;;;;;1.52;0.47;;;9.20;99.90;;;;;;5094595;28;20031;-72
2023/01/04 09:30:39;;;;;;;0.70;0.50;;;9.20;99.90;;;;;;5094412;28;20023;-73
2023/01/04 09:33:05;;;;;;;1.42;0.40;;;9.20;99.90;;;;;;5094911;28;20032;-73
2023/01/04 09:35:31;;;;;;;1.92;0.50;;;9.30;99.90;;;;;;5094300;28;20023;-73
2023/01/04 09:37:56;;;;;;;3.75;0.80;;;9.30;99.90;;;;;;5094448;28;20024;-73
2023/01/04 09:40:30;;;;;;;1.15;0.70;;;9.30;99.90;;;;;;5094873;28;20108;-72
2023/01/04 09:42:57;;;;;;;2.47;1.00;;;9.30;99.90;;;;;;5094939;28;20032;-73
2023/01/04 09:45:25;;;;;;;3.97;0.85;;;9.40;99.90;;;;;;5096511;28;20043;-72
2023/01/04 09:47:59;;;;;;;2.33;0.68;;;9.40;99.90;;;;;;5098235;28;20030;-73
2023/01/04 09:50:29;;;;;;;3.88;0.70;;;9.50;99.90;;;;;;5098943;28;20031;-72
2023/01/04 09:53:01;;;;;;;5.55;1.02;;;9.50;99.90;;;;;;5117009;28;20478;-73
2023/01/04 09:55:34;;;;;;;3.10;1.70;;;9.60;99.90;;;;;;5098630;28;20032;-78
2023/01/04 09:58:25;;;;;;;1.83;1.00;;;9.60;99.90;;;;;;5116560;28;20023;-73
2023/01/04 10:01:10;;;;;;;3.97;0.82;;;9.70;99.90;;;;;;5116009;28;20039;-72
2023/01/04 10:03:40;;;;;;;2.42;0.93;;;9.70;99.90;;;;;;5115986;28;20039;-73
2023/01/04 10:06:10;;;;;;;1.73;0.70;;;9.70;99.90;;;;;;5098520;28;20031;-73
2023/01/04 10:08:36;;;;;;;3.35;1.05;;;9.80;99.90;;;;;;5097860;28;20028;-73
2023/01/04 10:11:07;;;;;;;1.35;0.60;;;9.80;99.90;;;;;;5116408;28;20020;-72
2023/01/04 10:13:41;;;;;;;1.50;0.57;;;9.80;99.90;;;;;;5097821;28;20035;-72
2023/01/04 10:16:28;;;;;;;2.35;1.08;;;9.90;99.90;;;;;;5098504;28;20256;-73
2023/01/04 10:19:12;;;;;;;3.00;0.73;;;9.90;99.90;;;;;;5116664;28;20097;-73
2023/01/04 10:21:48;;;;;;;1.42;0.90;;;9.90;99.90;;;;;;5097582;28;20042;-73
2023/01/04 10:24:42;;;;;;;5.43;0.75;;;9.90;99.90;;;;;;5098377;28;20032;-73
2023/01/04 10:27:29;;;;;;;2.85;0.70;;;9.90;99.90;;;;;;5097923;28;20070;-73
2023/01/04 10:30:07;;;;;;;2.72;0.60;;;9.90;99.90;;;;;;5116049;28;20391;-72
2023/01/04 10:32:39;;;;;;;1.70;0.52;;;9.90;99.90;;;;;;5097669;28;20027;-73
2023/01/04 10:35:21;;;;;;;0.52;0.32;;;9.90;99.90;;;;;;5097758;28;20456;-72
2023/01/04 10:37:51;;;;;;;5.07;0.65;;;9.90;99.90;;;;;;5115620;28;20023;-73
2023/01/04 10:40:17;;;;;;;2.85;0.65;;;9.90;99.90;;;;;;5098037;28;20020;-72
2023/01/04 10:43:11;;;;;;;4.03;0.60;;;10.00;99.90;;;;;;5097268;28;20111;-73
2023/01/04 10:45:48;;;;;;;1.95;0.60;;;10.00;99.90;;;;;;5115330;28;20031;-73
2023/01/04 10:48:22;;;;;;;0.80;0.43;;;10.00;99.90;;;;;;5116054;28;20067;-73
2023/01/04 10:50:57;;;;;;;3.25;0.55;;;10.00;99.90;;;;;;5097215;28;20380;-73
2023/01/04 10:53:26;;;;;;;1.15;0.73;;;10.00;99.90;;;;;;5115998;28;20354;-72
2023/01/04 10:56:17;;;;;;;2.00;0.45;;;10.00;99.90;;;;;;5115518;28;20357;-73
2023/01/04 10:59:35;;;;;;;3.50;0.70;;;10.00;99.90;;;;;;5096970;28;20030;-73
2023/01/04 11:02:22;;;;;;;0.60;0.40;;;10.00;99.90;;;;;;4996479;28;20068;-72
2023/01/04 11:05:12;;;;;;;1.83;0.40;;;10.00;99.90;;;;;;5090452;28;20122;-73
2023/01/04 11:07:46;;;;;;;1.05;0.40;;;10.00;99.90;;;;;;5097053;28;20385;-72
2023/01/04 11:10:17;;;;;;;0.85;0.40;;;10.00;99.90;;;;;;5097520;28;20027;-73
2023/01/04 11:12:44;;;;;;;1.20;0.52;;;10.00;99.90;;;;;;5114780;28;20185;-73
2023/01/04 11:15:10;;;;;;;0.47;0.40;;;10.00;99.90;;;;;;5096883;28;20112;-73
2023/01/04 11:17:36;;;;;;;0.93;0.50;;;10.00;99.90;;;;;;5114802;28;20119;-73
2023/01/04 11:20:02;;;;;;;0.68;0.40;;;10.00;99.90;;;;;;5097064;28;20020;-73
2023/01/04 11:22:36;;;;;;;2.67;0.40;;;10.00;99.90;;;;;;5115011;28;20030;-73
2023/01/04 11:25:07;;;;;;;0.60;0.43;;;10.00;99.90;;;;;;5097091;28;20077;-73
2023/01/04 11:27:43;;;;;;;1.90;0.70;;;10.00;99.90;;;;;;5096917;28;20038;-73
2023/01/04 11:30:17;;;;;;;0.57;0.47;;;10.00;99.90;;;;;;5096826;28;20473;-73
2023/01/04 11:33:02;;;;;;;1.67;0.50;;;10.00;99.90;;;;;;5096347;28;20031;-73
2023/01/04 11:35:49;;;;;;;1.25;0.40;;;10.00;99.90;;;;;;5096833;28;20027;-74
2023/01/04 11:38:16;;;;;;;1.27;0.70;;;10.00;99.90;;;;;;5096842;28;20016;-72
2023/01/04 11:40:54;;;;;;;1.00;0.50;;;10.00;99.90;;;;;;5096241;28;20024;-73
2023/01/04 11:43:21;;;;;;;2.33;0.60;;;10.10;99.90;;;;;;5114623;28;20034;-72
2023/01/04 11:46:05;;;;;;;2.13;0.70;;;10.10;99.90;;;;;;5096066;28;20173;-72
2023/01/04 11:48:32;;;;;;;2.47;0.60;;;10.10;99.90;;;;;;5096635;28;20031;-72
2023/01/04 11:50:58;;;;;;;1.85;0.50;;;10.10;99.90;;;;;;5095893;28;20058;-73
2023/01/04 11:53:34;;;;;;;0.63;0.43;;;10.10;99.90;;;;;;5096547;28;20031;-72
2023/01/04 11:56:12;;;;;;;0.73;0.60;;;10.10;99.90;;;;;;5096607;28;20452;-73
2023/01/04 11:58:38;;;;;;;1.83;0.43;;;10.10;99.90;;;;;;5095629;28;20092;-73
2023/01/04 12:01:04;;;;;;;1.13;0.52;;;10.10;99.90;;;;;;5096253;28;20059;-73
2023/01/04 12:03:39;;;;;;;1.52;0.60;;;10.20;99.90;;;;;;5096218;28;20464;-72
2023/01/04 12:06:15;;;;;;;0.65;0.50;;;10.20;99.90;;;;;;5096287;28;20035;-73
2023/01/04 12:08:41;;;;;;;1.05;0.50;;;10.30;99.90;;;;;;5112894;28;20034;-73
2023/01/04 12:11:18;;;;;;;2.03;0.43;;;10.30;99.90;;;;;;5096090;28;20023;-73
2023/01/04 12:13:44;;;;;;;2.05;0.52;;;10.30;99.90;;;;;;5095590;28;20027;-73
2023/01/04 12:16:19;;;;;;;0.60;0.40;;;10.30;99.90;;;;;;5095990;28;20115;-72
2023/01/04 12:18:45;;;;;;;1.15;0.52;;;10.30;99.90;;;;;;5095590;28;20043;-73
2023/01/04 12:21:24;;;;;;;1.05;0.57;;;10.30;99.90;;;;;;5096241;28;20058;-73
2023/01/04 12:23:51;;;;;;;0.70;0.43;;;10.30;99.90;;;;;;5095345;28;20028;-72
2023/01/04 12:26:17;;;;;;;0.60;0.40;;;10.40;99.90;;;;;;5095802;28;20430;-72
2023/01/04 12:28:46;;;;;;;1.15;0.47;;;10.40;99.90;;;;;;5113417;28;20516;-73
2023/01/04 12:31:20;;;;;;;1.65;0.50;;;10.40;99.90;;;;;;5095686;28;20111;-72
2023/01/04 12:33:55;;;;;;;3.75;0.50;;;10.40;99.90;;;;;;5113153;28;20031;-73
2023/01/04 12:36:39;;;;;;;1.92;0.50;;;10.50;99.90;;;;;;5095824;28;20027;-72
2023/01/04 12:39:28;;;;;;;0.50;0.50;;;10.50;99.90;;;;;;5095539;28;20030;-72
2023/01/04 12:42:14;;;;;;;1.65;0.60;;;10.60;99.90;;;;;;5113186;28;20107;-73
2023/01/04 12:44:45;;;;;;;0.40;0.40;;;10.60;99.90;;;;;;5112920;28;20024;-73
2023/01/04 12:50:13;;;;;;;1.33;0.43;;;10.60;99.90;;;;;;5112918;28;20034;-72
2023/01/04 12:52:45;;;;;;;1.35;0.50;;;10.60;99.90;;;;;;5094897;28;20081;-73
2023/01/04 12:55:40;;;;;;;1.40;0.55;;;10.60;99.90;;;;;;5095252;28;20118;-73
2023/01/04 12:58:27;;;;;;;1.63;0.95;;;10.60;99.90;;;;;;5085769;28;20123;-73
2023/01/04 13:00:53;;;;;;;2.08;0.60;;;10.60;99.90;;;;;;5094763;28;20098;-73
2023/01/04 13:03:18;;;;;;;3.67;0.30;;;10.60;99.90;;;;;;5095240;28;20484;-73
2023/01/04 13:06:00;;;;;;;0.60;0.40;;;10.60;99.90;;;;;;5094704;28;20127;-73
2023/01/04 13:08:26;;;;;;;1.42;0.40;;;10.60;99.90;;;;;;5113471;28;20050;-72
2023/01/04 13:10:55;;;;;;;1.45;0.40;;;10.60;99.90;;;;;;5112439;28;20024;-72
2023/01/04 13:13:35;;;;;;;0.93;0.52;;;10.60;99.90;;;;;;5113307;28;20027;-72
2023/01/04 13:16:23;;;;;;;0.57;0.43;;;10.60;99.90;;;;;;5094514;28;20118;-73
2023/01/04 13:19:12;;;;;;;1.70;0.50;;;10.60;99.90;;;;;;5112731;28;20047;-73
2023/01/04 13:21:40;;;;;;;1.52;0.50;;;10.60;99.90;;;;;;5094853;28;20028;-72
2023/01/04 13:24:31;;;;;;;2.30;0.80;;;10.60;99.90;;;;;;5113150;28;20027;-72
2023/01/04 13:27:09;;;;;;;1.23;0.73;;;10.60;99.90;;;;;;5094223;28;20035;-72
2023/01/04 13:29:35;;;;;;;1.50;0.70;;;10.70;99.90;;;;;;5094920;28;20492;-72
2023/01/04 13:32:07;;;;;;;1.92;0.80;;;10.70;99.90;;;;;;5094400;28;20089;-72
2023/01/04 13:34:38;;;;;;;1.38;0.68;;;10.70;99.90;;;;;;5094843;28;20023;-72
2023/01/04 13:37:03;;;;;;;3.22;0.55;;;10.80;99.90;;;;;;5094361;28;20030;-73
2023/01/04 13:39:29;;;;;;;3.28;1.77;;;10.80;99.90;;;;;;5094848;28;20413;-73
2023/01/04 13:41:56;;;;;;;5.25;1.80;;;10.80;99.90;;;;;;5094252;28;20411;-73
2023/01/04 13:44:34;;;;;;;7.18;2.63;;;10.80;99.90;;;;;;5094775;28;20028;-72
2023/01/04 13:47:00;;;;;;;5.70;1.65;;;10.80;99.90;;;;;;5112439;28;20031;-72
2023/01/04 13:49:25;;;;;;;3.05;1.30;;;10.80;99.90;;;;;;5094836;28;20024;-73
2023/01/04 13:51:51;;;;;;;1.70;1.05;;;10.80;99.90;;;;;;5094291;28;20028;-73
2023/01/04 13:54:20;;;;;;;5.13;1.90;;;10.80;99.90;;;;;;5094629;28;20358;-73
2023/01/04 13:56:46;;;;;;;4.10;0.80;;;10.80;99.90;;;;;;5093845;28;20024;-73
2023/01/04 13:59:12;;;;;;;1.83;0.70;;;10.80;99.90;;;;;;5094737;28;20073;-73
2023/01/04 14:01:47;;;;;;;0.88;0.60;;;10.70;99.90;;;;;;5094603;28;20027;-72
2023/01/04 14:04:32;;;;;;;0.98;0.50;;;10.80;99.90;;;;;;5094775;28;20038;-72